sensor_id;sensor_type;location;lat;lon;timestamp;P1;durP1;ratioP1;P2;durP2;ratioP2
41964;SDS011;50120;53.250;8.702;2022-09-27T00:00:22;152.77;;;24.75;;
41964;SDS011;50120;53.250;8.702;2022-09-27T00:02:48;89.40;;;23.95;;
41964;SDS011;50120;53.250;8.702;2022-09-27T00:05:14;72.85;;;23.33;;
41964;SDS011;50120;53.250;8.702;2022-09-27T00:07:40;84.15;;;23.50;;
41964;SDS011;50120;53.250;8.702;2022-09-27T00:10:06;92.30;;;23.63;;
41964;SDS011;50120;53.250;8.702;2022-09-27T00:12:33;89.75;;;22.38;;
41964;SDS011;50120;53.250;8.702;2022-09-27T00:14:59;77.35;;;23.42;;
41964;SDS011;50120;53.250;8.702;2022-09-27T00:17:26;134.38;;;23.80;;
41964;SDS011;50120;53.250;8.702;2022-09-27T00:19:52;175.18;;;25.88;;
41964;SDS011;50120;53.250;8.702;2022-09-27T00:22:20;124.00;;;22.65;;
41964;SDS011;50120;53.250;8.702;2022-09-27T00:24:48;69.35;;;21.92;;
41964;SDS011;50120;53.250;8.702;2022-09-27T00:27:14;69.20;;;21.70;;
41964;SDS011;50120;53.250;8.702;2022-09-27T00:29:39;95.60;;;21.42;;
41964;SDS011;50120;53.250;8.702;2022-09-27T00:32:05;72.93;;;22.30;;
41964;SDS011;50120;53.250;8.702;2022-09-27T00:34:31;87.55;;;22.58;;
41964;SDS011;50120;53.250;8.702;2022-09-27T00:36:56;95.90;;;22.27;;
41964;SDS011;50120;53.250;8.702;2022-09-27T00:39:22;89.20;;;21.30;;
41964;SDS011;50120;53.250;8.702;2022-09-27T00:41:48;82.60;;;21.98;;
41964;SDS011;50120;53.250;8.702;2022-09-27T00:47:05;87.10;;;21.15;;
41964;SDS011;50120;53.250;8.702;2022-09-27T00:52:44;77.72;;;20.10;;
41964;SDS011;50120;53.250;8.702;2022-09-27T00:55:27;95.85;;;21.45;;
41964;SDS011;50120;53.250;8.702;2022-09-27T00:57:57;103.15;;;21.48;;
41964;SDS011;50120;53.250;8.702;2022-09-27T01:00:23;98.22;;;21.30;;
41964;SDS011;50120;53.250;8.702;2022-09-27T01:02:50;87.07;;;20.17;;
41964;SDS011;50120;53.250;8.702;2022-09-27T01:05:19;121.00;;;21.50;;
41964;SDS011;50120;53.250;8.702;2022-09-27T01:07:48;89.07;;;20.15;;
41964;SDS011;50120;53.250;8.702;2022-09-27T01:10:14;64.15;;;19.05;;
41964;SDS011;50120;53.250;8.702;2022-09-27T01:21:46;67.38;;;17.15;;
41964;SDS011;50120;53.250;8.702;2022-09-27T01:24:25;66.97;;;17.25;;
41964;SDS011;50120;53.250;8.702;2022-09-27T01:32:31;54.53;;;13.68;;
41964;SDS011;50120;53.250;8.702;2022-09-27T01:40:21;39.08;;;12.45;;
41964;SDS011;50120;53.250;8.702;2022-09-27T01:48:23;42.25;;;12.00;;
41964;SDS011;50120;53.250;8.702;2022-09-27T01:51:06;42.92;;;11.80;;
41964;SDS011;50120;53.250;8.702;2022-09-27T01:53:49;35.15;;;10.57;;
41964;SDS011;50120;53.250;8.702;2022-09-27T01:56:29;53.25;;;11.48;;
41964;SDS011;50120;53.250;8.702;2022-09-27T01:59:07;44.58;;;11.02;;
41964;SDS011;50120;53.250;8.702;2022-09-27T02:01:40;33.83;;;10.82;;
41964;SDS011;50120;53.250;8.702;2022-09-27T02:04:10;34.47;;;10.02;;
41964;SDS011;50120;53.250;8.702;2022-09-27T02:06:42;36.28;;;10.10;;
41964;SDS011;50120;53.250;8.702;2022-09-27T02:09:16;35.63;;;9.65;;
41964;SDS011;50120;53.250;8.702;2022-09-27T02:11:47;37.47;;;10.60;;
41964;SDS011;50120;53.250;8.702;2022-09-27T02:16:51;32.45;;;9.18;;
41964;SDS011;50120;53.250;8.702;2022-09-27T02:24:49;59.83;;;9.02;;
41964;SDS011;50120;53.250;8.702;2022-09-27T02:27:22;28.77;;;8.00;;
41964;SDS011;50120;53.250;8.702;2022-09-27T02:29:59;23.65;;;8.18;;
41964;SDS011;50120;53.250;8.702;2022-09-27T02:32:31;25.30;;;7.47;;
41964;SDS011;50120;53.250;8.702;2022-09-27T02:34:59;24.75;;;7.10;;
41964;SDS011;50120;53.250;8.702;2022-09-27T02:37:28;34.45;;;7.75;;
41964;SDS011;50120;53.250;8.702;2022-09-27T02:39:54;22.48;;;7.35;;
41964;SDS011;50120;53.250;8.702;2022-09-27T02:42:21;28.88;;;7.30;;
41964;SDS011;50120;53.250;8.702;2022-09-27T02:44:47;34.58;;;6.78;;
41964;SDS011;50120;53.250;8.702;2022-09-27T02:55:17;28.27;;;5.88;;
41964;SDS011;50120;53.250;8.702;2022-09-27T03:00:36;23.17;;;5.35;;
41964;SDS011;50120;53.250;8.702;2022-09-27T03:03:21;13.30;;;4.97;;
41964;SDS011;50120;53.250;8.702;2022-09-27T03:05:55;24.15;;;5.10;;
41964;SDS011;50120;53.250;8.702;2022-09-27T03:08:31;12.65;;;4.50;;
41964;SDS011;50120;53.250;8.702;2022-09-27T03:10:57;10.95;;;4.25;;
41964;SDS011;50120;53.250;8.702;2022-09-27T03:13:23;14.00;;;4.55;;
41964;SDS011;50120;53.250;8.702;2022-09-27T03:15:49;19.00;;;4.63;;
41964;SDS011;50120;53.250;8.702;2022-09-27T03:18:15;12.65;;;4.18;;
41964;SDS011;50120;53.250;8.702;2022-09-27T03:20:40;14.00;;;4.88;;
41964;SDS011;50120;53.250;8.702;2022-09-27T03:23:06;10.90;;;3.97;;
41964;SDS011;50120;53.250;8.702;2022-09-27T03:25:32;20.27;;;4.18;;
41964;SDS011;50120;53.250;8.702;2022-09-27T03:27:57;13.02;;;3.90;;
41964;SDS011;50120;53.250;8.702;2022-09-27T03:30:24;10.90;;;3.90;;
41964;SDS011;50120;53.250;8.702;2022-09-27T03:32:49;12.70;;;3.80;;
41964;SDS011;50120;53.250;8.702;2022-09-27T03:35:15;12.07;;;4.00;;
41964;SDS011;50120;53.250;8.702;2022-09-27T03:37:41;9.63;;;3.90;;
41964;SDS011;50120;53.250;8.702;2022-09-27T03:40:07;13.23;;;3.63;;
41964;SDS011;50120;53.250;8.702;2022-09-27T03:42:33;15.98;;;3.33;;
41964;SDS011;50120;53.250;8.702;2022-09-27T03:44:59;16.35;;;3.75;;
41964;SDS011;50120;53.250;8.702;2022-09-27T03:47:24;11.55;;;3.60;;
41964;SDS011;50120;53.250;8.702;2022-09-27T03:49:50;11.18;;;4.38;;
41964;SDS011;50120;53.250;8.702;2022-09-27T03:52:16;15.73;;;5.13;;
41964;SDS011;50120;53.250;8.702;2022-09-27T03:54:44;14.30;;;4.90;;
41964;SDS011;50120;53.250;8.702;2022-09-27T03:57:10;18.88;;;5.43;;
41964;SDS011;50120;53.250;8.702;2022-09-27T03:59:36;20.30;;;6.93;;
41964;SDS011;50120;53.250;8.702;2022-09-27T04:02:02;22.80;;;7.07;;
41964;SDS011;50120;53.250;8.702;2022-09-27T04:04:28;40.22;;;9.40;;
41964;SDS011;50120;53.250;8.702;2022-09-27T04:06:53;32.25;;;9.43;;
41964;SDS011;50120;53.250;8.702;2022-09-27T04:09:20;37.33;;;9.50;;
41964;SDS011;50120;53.250;8.702;2022-09-27T04:11:45;31.60;;;8.35;;
41964;SDS011;50120;53.250;8.702;2022-09-27T04:14:11;30.45;;;7.72;;
41964;SDS011;50120;53.250;8.702;2022-09-27T04:16:37;23.63;;;6.85;;
41964;SDS011;50120;53.250;8.702;2022-09-27T04:19:04;18.75;;;6.47;;
41964;SDS011;50120;53.250;8.702;2022-09-27T04:21:31;16.83;;;6.40;;
41964;SDS011;50120;53.250;8.702;2022-09-27T04:23:57;21.05;;;5.85;;
41964;SDS011;50120;53.250;8.702;2022-09-27T04:26:23;23.83;;;6.00;;
41964;SDS011;50120;53.250;8.702;2022-09-27T04:28:50;14.68;;;4.70;;
41964;SDS011;50120;53.250;8.702;2022-09-27T04:31:16;17.00;;;4.85;;
41964;SDS011;50120;53.250;8.702;2022-09-27T04:33:43;18.33;;;5.15;;
41964;SDS011;50120;53.250;8.702;2022-09-27T04:36:10;18.08;;;4.90;;
41964;SDS011;50120;53.250;8.702;2022-09-27T04:38:52;19.02;;;5.07;;
41964;SDS011;50120;53.250;8.702;2022-09-27T04:41:19;17.58;;;4.80;;
41964;SDS011;50120;53.250;8.702;2022-09-27T04:43:49;12.73;;;4.43;;
41964;SDS011;50120;53.250;8.702;2022-09-27T04:46:16;20.33;;;5.35;;
41964;SDS011;50120;53.250;8.702;2022-09-27T04:48:42;21.40;;;5.30;;
41964;SDS011;50120;53.250;8.702;2022-09-27T04:51:08;13.20;;;4.63;;
41964;SDS011;50120;53.250;8.702;2022-09-27T04:53:34;19.70;;;5.10;;
41964;SDS011;50120;53.250;8.702;2022-09-27T04:56:00;14.75;;;5.70;;
41964;SDS011;50120;53.250;8.702;2022-09-27T04:58:30;13.07;;;4.60;;
41964;SDS011;50120;53.250;8.702;2022-09-27T05:00:57;10.45;;;4.28;;
41964;SDS011;50120;53.250;8.702;2022-09-27T05:03:24;15.80;;;4.28;;
41964;SDS011;50120;53.250;8.702;2022-09-27T05:05:50;32.97;;;4.57;;
41964;SDS011;50120;53.250;8.702;2022-09-27T05:08:16;14.30;;;4.05;;
41964;SDS011;50120;53.250;8.702;2022-09-27T05:10:41;8.65;;;3.38;;
41964;SDS011;50120;53.250;8.702;2022-09-27T05:13:07;10.32;;;4.10;;
41964;SDS011;50120;53.250;8.702;2022-09-27T05:15:33;7.75;;;3.55;;
41964;SDS011;50120;53.250;8.702;2022-09-27T05:18:00;10.45;;;4.00;;
41964;SDS011;50120;53.250;8.702;2022-09-27T05:20:26;8.85;;;3.90;;
41964;SDS011;50120;53.250;8.702;2022-09-27T05:22:51;15.48;;;3.85;;
41964;SDS011;50120;53.250;8.702;2022-09-27T05:25:17;11.38;;;4.05;;
41964;SDS011;50120;53.250;8.702;2022-09-27T05:27:43;16.45;;;3.83;;
41964;SDS011;50120;53.250;8.702;2022-09-27T05:30:09;9.50;;;3.53;;
41964;SDS011;50120;53.250;8.702;2022-09-27T05:32:38;16.80;;;3.45;;
41964;SDS011;50120;53.250;8.702;2022-09-27T05:35:07;16.13;;;3.55;;
41964;SDS011;50120;53.250;8.702;2022-09-27T05:37:34;8.95;;;3.60;;
41964;SDS011;50120;53.250;8.702;2022-09-27T05:40:00;18.23;;;3.85;;
41964;SDS011;50120;53.250;8.702;2022-09-27T05:42:26;12.60;;;3.40;;
41964;SDS011;50120;53.250;8.702;2022-09-27T05:44:52;18.40;;;3.60;;
41964;SDS011;50120;53.250;8.702;2022-09-27T05:47:17;13.75;;;3.70;;
41964;SDS011;50120;53.250;8.702;2022-09-27T05:49:43;11.13;;;4.18;;
41964;SDS011;50120;53.250;8.702;2022-09-27T05:52:09;12.88;;;3.63;;
41964;SDS011;50120;53.250;8.702;2022-09-27T05:54:34;12.27;;;3.58;;
41964;SDS011;50120;53.250;8.702;2022-09-27T05:57:00;14.45;;;3.97;;
41964;SDS011;50120;53.250;8.702;2022-09-27T05:59:26;13.02;;;3.60;;
41964;SDS011;50120;53.250;8.702;2022-09-27T06:01:52;15.90;;;4.55;;
41964;SDS011;50120;53.250;8.702;2022-09-27T06:04:19;14.15;;;4.10;;
41964;SDS011;50120;53.250;8.702;2022-09-27T06:06:45;10.13;;;4.05;;
41964;SDS011;50120;53.250;8.702;2022-09-27T06:09:13;10.88;;;4.57;;
41964;SDS011;50120;53.250;8.702;2022-09-27T06:11:40;16.00;;;4.93;;
41964;SDS011;50120;53.250;8.702;2022-09-27T06:14:09;9.70;;;3.58;;
41964;SDS011;50120;53.250;8.702;2022-09-27T06:16:38;11.52;;;3.90;;
41964;SDS011;50120;53.250;8.702;2022-09-27T06:19:03;7.97;;;3.70;;
41964;SDS011;50120;53.250;8.702;2022-09-27T06:21:29;15.00;;;5.00;;
41964;SDS011;50120;53.250;8.702;2022-09-27T06:23:56;10.70;;;4.28;;
41964;SDS011;50120;53.250;8.702;2022-09-27T06:26:24;11.27;;;6.10;;
41964;SDS011;50120;53.250;8.702;2022-09-27T06:28:54;11.63;;;4.82;;
41964;SDS011;50120;53.250;8.702;2022-09-27T06:31:20;18.15;;;6.18;;
41964;SDS011;50120;53.250;8.702;2022-09-27T06:33:47;13.35;;;6.00;;
41964;SDS011;50120;53.250;8.702;2022-09-27T06:36:13;17.98;;;7.00;;
41964;SDS011;50120;53.250;8.702;2022-09-27T06:38:39;17.45;;;5.70;;
41964;SDS011;50120;53.250;8.702;2022-09-27T06:41:06;21.02;;;5.72;;
41964;SDS011;50120;53.250;8.702;2022-09-27T06:43:33;22.58;;;6.72;;
41964;SDS011;50120;53.250;8.702;2022-09-27T06:45:59;15.13;;;5.80;;
41964;SDS011;50120;53.250;8.702;2022-09-27T06:48:32;22.38;;;7.10;;
41964;SDS011;50120;53.250;8.702;2022-09-27T06:51:01;16.63;;;5.70;;
41964;SDS011;50120;53.250;8.702;2022-09-27T06:53:27;16.83;;;4.90;;
41964;SDS011;50120;53.250;8.702;2022-09-27T06:55:56;23.02;;;5.05;;
41964;SDS011;50120;53.250;8.702;2022-09-27T06:58:23;14.43;;;5.28;;
41964;SDS011;50120;53.250;8.702;2022-09-27T07:01:07;8.73;;;5.13;;
41964;SDS011;50120;53.250;8.702;2022-09-27T07:03:34;11.82;;;3.42;;
41964;SDS011;50120;53.250;8.702;2022-09-27T07:06:04;11.40;;;5.13;;
41964;SDS011;50120;53.250;8.702;2022-09-27T07:08:30;11.13;;;3.90;;
41964;SDS011;50120;53.250;8.702;2022-09-27T07:11:02;8.55;;;2.97;;
41964;SDS011;50120;53.250;8.702;2022-09-27T07:13:29;12.32;;;3.17;;
41964;SDS011;50120;53.250;8.702;2022-09-27T07:15:58;12.73;;;4.15;;
41964;SDS011;50120;53.250;8.702;2022-09-27T07:18:25;8.63;;;3.75;;
41964;SDS011;50120;53.250;8.702;2022-09-27T07:20:51;9.43;;;3.95;;
41964;SDS011;50120;53.250;8.702;2022-09-27T07:23:17;9.10;;;3.20;;
41964;SDS011;50120;53.250;8.702;2022-09-27T07:25:44;11.90;;;3.10;;
41964;SDS011;50120;53.250;8.702;2022-09-27T07:28:14;5.70;;;2.50;;
41964;SDS011;50120;53.250;8.702;2022-09-27T07:30:43;8.07;;;2.33;;
41964;SDS011;50120;53.250;8.702;2022-09-27T07:33:09;8.18;;;2.90;;
41964;SDS011;50120;53.250;8.702;2022-09-27T07:35:39;6.80;;;3.22;;
41964;SDS011;50120;53.250;8.702;2022-09-27T07:38:05;6.30;;;2.40;;
41964;SDS011;50120;53.250;8.702;2022-09-27T07:40:32;7.28;;;2.20;;
41964;SDS011;50120;53.250;8.702;2022-09-27T07:43:00;6.35;;;2.40;;
41964;SDS011;50120;53.250;8.702;2022-09-27T07:45:26;8.43;;;2.60;;
41964;SDS011;50120;53.250;8.702;2022-09-27T07:47:52;5.97;;;2.15;;
41964;SDS011;50120;53.250;8.702;2022-09-27T07:50:18;7.78;;;2.28;;
41964;SDS011;50120;53.250;8.702;2022-09-27T07:52:46;10.80;;;2.58;;
41964;SDS011;50120;53.250;8.702;2022-09-27T07:55:14;7.50;;;2.00;;
41964;SDS011;50120;53.250;8.702;2022-09-27T07:57:40;7.38;;;2.08;;
41964;SDS011;50120;53.250;8.702;2022-09-27T08:00:07;4.57;;;2.30;;
41964;SDS011;50120;53.250;8.702;2022-09-27T08:02:35;4.68;;;1.70;;
41964;SDS011;50120;53.250;8.702;2022-09-27T08:05:01;7.70;;;1.60;;
41964;SDS011;50120;53.250;8.702;2022-09-27T08:07:27;4.50;;;1.50;;
41964;SDS011;50120;53.250;8.702;2022-09-27T08:09:54;5.85;;;2.20;;
41964;SDS011;50120;53.250;8.702;2022-09-27T08:12:20;6.28;;;1.63;;
41964;SDS011;50120;53.250;8.702;2022-09-27T08:14:47;8.93;;;1.90;;
41964;SDS011;50120;53.250;8.702;2022-09-27T08:17:13;4.63;;;1.70;;
41964;SDS011;50120;53.250;8.702;2022-09-27T08:19:39;8.05;;;1.75;;
41964;SDS011;50120;53.250;8.702;2022-09-27T08:22:06;4.10;;;1.70;;
41964;SDS011;50120;53.250;8.702;2022-09-27T08:24:32;3.95;;;1.60;;
41964;SDS011;50120;53.250;8.702;2022-09-27T08:26:59;4.20;;;1.70;;
41964;SDS011;50120;53.250;8.702;2022-09-27T08:29:26;5.22;;;1.48;;
41964;SDS011;50120;53.250;8.702;2022-09-27T08:31:51;4.05;;;1.50;;
41964;SDS011;50120;53.250;8.702;2022-09-27T08:34:21;3.63;;;1.38;;
41964;SDS011;50120;53.250;8.702;2022-09-27T08:36:47;4.38;;;1.50;;
41964;SDS011;50120;53.250;8.702;2022-09-27T08:39:13;2.67;;;1.40;;
41964;SDS011;50120;53.250;8.702;2022-09-27T08:46:57;2.60;;;1.07;;
41964;SDS011;50120;53.250;8.702;2022-09-27T08:49:40;6.38;;;1.60;;
41964;SDS011;50120;53.250;8.702;2022-09-27T08:52:24;4.13;;;1.77;;
41964;SDS011;50120;53.250;8.702;2022-09-27T08:54:55;7.95;;;2.08;;
41964;SDS011;50120;53.250;8.702;2022-09-27T08:57:22;7.07;;;2.15;;
41964;SDS011;50120;53.250;8.702;2022-09-27T08:59:53;4.60;;;1.58;;
41964;SDS011;50120;53.250;8.702;2022-09-27T09:02:30;5.95;;;2.17;;
41964;SDS011;50120;53.250;8.702;2022-09-27T09:05:05;5.40;;;2.00;;
41964;SDS011;50120;53.250;8.702;2022-09-27T09:18:52;18.10;;;7.22;;
41964;SDS011;50120;53.250;8.702;2022-09-27T09:26:38;17.67;;;5.97;;
41964;SDS011;50120;53.250;8.702;2022-09-27T09:34:45;15.80;;;7.10;;
41964;SDS011;50120;53.250;8.702;2022-09-27T09:37:20;17.02;;;7.70;;
41964;SDS011;50120;53.250;8.702;2022-09-27T09:42:59;19.73;;;9.75;;
41964;SDS011;50120;53.250;8.702;2022-09-27T09:45:41;30.05;;;13.57;;
41964;SDS011;50120;53.250;8.702;2022-09-27T09:48:18;9.60;;;4.30;;
41964;SDS011;50120;53.250;8.702;2022-09-27T09:51:01;14.27;;;5.80;;
41964;SDS011;50120;53.250;8.702;2022-09-27T09:55:59;18.60;;;6.53;;
41964;SDS011;50120;53.250;8.702;2022-09-27T09:58:40;14.05;;;5.30;;
41964;SDS011;50120;53.250;8.702;2022-09-27T10:01:24;7.32;;;2.90;;
41964;SDS011;50120;53.250;8.702;2022-09-27T10:03:53;8.13;;;4.32;;
41964;SDS011;50120;53.250;8.702;2022-09-27T10:06:20;6.55;;;2.45;;
41964;SDS011;50120;53.250;8.702;2022-09-27T10:08:48;7.72;;;2.80;;
41964;SDS011;50120;53.250;8.702;2022-09-27T10:11:20;13.82;;;4.43;;
41964;SDS011;50120;53.250;8.702;2022-09-27T10:13:48;12.88;;;5.70;;
41964;SDS011;50120;53.250;8.702;2022-09-27T10:16:15;9.85;;;3.90;;
41964;SDS011;50120;53.250;8.702;2022-09-27T10:18:43;16.48;;;3.83;;
41964;SDS011;50120;53.250;8.702;2022-09-27T10:21:20;8.32;;;2.95;;
41964;SDS011;50120;53.250;8.702;2022-09-27T10:24:10;9.90;;;2.95;;
41964;SDS011;50120;53.250;8.702;2022-09-27T10:26:38;7.82;;;3.05;;
41964;SDS011;50120;53.250;8.702;2022-09-27T10:29:13;8.18;;;3.00;;
41964;SDS011;50120;53.250;8.702;2022-09-27T10:31:56;6.85;;;2.55;;
41964;SDS011;50120;53.250;8.702;2022-09-27T10:34:34;9.82;;;2.97;;
41964;SDS011;50120;53.250;8.702;2022-09-27T10:37:13;7.20;;;2.63;;
41964;SDS011;50120;53.250;8.702;2022-09-27T10:39:42;6.38;;;2.25;;
41964;SDS011;50120;53.250;8.702;2022-09-27T10:47:58;5.63;;;2.00;;
41964;SDS011;50120;53.250;8.702;2022-09-27T10:50:26;7.50;;;2.10;;
41964;SDS011;50120;53.250;8.702;2022-09-27T10:53:27;7.22;;;2.10;;
41964;SDS011;50120;53.250;8.702;2022-09-27T10:55:46;6.25;;;2.50;;
41964;SDS011;50120;53.250;8.702;2022-09-27T10:58:17;3.63;;;1.77;;
41964;SDS011;50120;53.250;8.702;2022-09-27T11:00:58;8.93;;;2.80;;
41964;SDS011;50120;53.250;8.702;2022-09-27T11:03:30;5.38;;;2.75;;
41964;SDS011;50120;53.250;8.702;2022-09-27T11:06:01;11.68;;;3.17;;
41964;SDS011;50120;53.250;8.702;2022-09-27T11:08:51;11.73;;;3.15;;
41964;SDS011;50120;53.250;8.702;2022-09-27T11:11:19;10.88;;;2.80;;
41964;SDS011;50120;53.250;8.702;2022-09-27T11:14:01;8.05;;;3.15;;
41964;SDS011;50120;53.250;8.702;2022-09-27T11:32:50;12.80;;;5.10;;
41964;SDS011;50120;53.250;8.702;2022-09-27T11:43:39;9.48;;;4.68;;
41964;SDS011;50120;53.250;8.702;2022-09-27T11:46:30;13.13;;;5.40;;
41964;SDS011;50120;53.250;8.702;2022-09-27T11:52:17;12.32;;;5.60;;
41964;SDS011;50120;53.250;8.702;2022-09-27T12:00:47;12.50;;;6.50;;
41964;SDS011;50120;53.250;8.702;2022-09-27T12:11:07;12.85;;;6.53;;
41964;SDS011;50120;53.250;8.702;2022-09-27T12:16:25;15.20;;;6.50;;
41964;SDS011;50120;53.250;8.702;2022-09-27T12:18:54;20.98;;;6.35;;
41964;SDS011;50120;53.250;8.702;2022-09-27T12:21:21;12.55;;;5.30;;
41964;SDS011;50120;53.250;8.702;2022-09-27T12:23:51;15.95;;;5.43;;
41964;SDS011;50120;53.250;8.702;2022-09-27T12:26:40;12.13;;;3.78;;
41964;SDS011;50120;53.250;8.702;2022-09-27T12:31:53;11.55;;;4.20;;
41964;SDS011;50120;53.250;8.702;2022-09-27T12:37:11;11.15;;;3.67;;
41964;SDS011;50120;53.250;8.702;2022-09-27T12:39:46;10.98;;;3.15;;
41964;SDS011;50120;53.250;8.702;2022-09-27T12:51:11;7.38;;;1.70;;
41964;SDS011;50120;53.250;8.702;2022-09-27T12:56:31;5.18;;;1.98;;
41964;SDS011;50120;53.250;8.702;2022-09-27T13:13:44;6.13;;;1.67;;
41964;SDS011;50120;53.250;8.702;2022-09-27T13:16:10;3.50;;;1.90;;
41964;SDS011;50120;53.250;8.702;2022-09-27T13:24:59;5.78;;;2.00;;
41964;SDS011;50120;53.250;8.702;2022-09-27T13:29:50;9.98;;;2.20;;
41964;SDS011;50120;53.250;8.702;2022-09-27T13:32:22;4.60;;;2.10;;
41964;SDS011;50120;53.250;8.702;2022-09-27T13:34:51;9.00;;;2.40;;
41964;SDS011;50120;53.250;8.702;2022-09-27T13:40:10;5.43;;;2.88;;
41964;SDS011;50120;53.250;8.702;2022-09-27T13:42:42;14.27;;;3.25;;
41964;SDS011;50120;53.250;8.702;2022-09-27T13:45:17;7.57;;;2.95;;
41964;SDS011;50120;53.250;8.702;2022-09-27T13:47:46;7.22;;;2.40;;
41964;SDS011;50120;53.250;8.702;2022-09-27T13:50:28;4.82;;;2.10;;
41964;SDS011;50120;53.250;8.702;2022-09-27T13:55:58;6.32;;;2.15;;
41964;SDS011;50120;53.250;8.702;2022-09-27T14:00:51;4.40;;;2.05;;
41964;SDS011;50120;53.250;8.702;2022-09-27T14:03:25;3.17;;;1.90;;
41964;SDS011;50120;53.250;8.702;2022-09-27T14:06:03;3.75;;;1.60;;
41964;SDS011;50120;53.250;8.702;2022-09-27T14:08:37;6.40;;;1.90;;
41964;SDS011;50120;53.250;8.702;2022-09-27T14:13:44;3.70;;;1.40;;
41964;SDS011;50120;53.250;8.702;2022-09-27T14:16:13;3.90;;;1.30;;
41964;SDS011;50120;53.250;8.702;2022-09-27T14:19:02;2.42;;;1.40;;
41964;SDS011;50120;53.250;8.702;2022-09-27T14:21:29;5.38;;;1.58;;
41964;SDS011;50120;53.250;8.702;2022-09-27T14:29:16;3.88;;;1.65;;
41964;SDS011;50120;53.250;8.702;2022-09-27T14:31:43;5.50;;;1.58;;
41964;SDS011;50120;53.250;8.702;2022-09-27T14:34:10;2.88;;;1.73;;
41964;SDS011;50120;53.250;8.702;2022-09-27T14:36:37;5.65;;;1.77;;
41964;SDS011;50120;53.250;8.702;2022-09-27T14:39:27;4.82;;;1.95;;
41964;SDS011;50120;53.250;8.702;2022-09-27T14:41:56;6.63;;;2.15;;
41964;SDS011;50120;53.250;8.702;2022-09-27T14:44:26;4.13;;;1.77;;
41964;SDS011;50120;53.250;8.702;2022-09-27T14:47:16;5.78;;;1.90;;
41964;SDS011;50120;53.250;8.702;2022-09-27T14:49:50;5.82;;;1.60;;
41964;SDS011;50120;53.250;8.702;2022-09-27T14:52:25;7.47;;;1.77;;
41964;SDS011;50120;53.250;8.702;2022-09-27T14:55:05;9.88;;;2.00;;
41964;SDS011;50120;53.250;8.702;2022-09-27T14:57:39;2.72;;;1.70;;
41964;SDS011;50120;53.250;8.702;2022-09-27T15:02:47;3.88;;;2.13;;
41964;SDS011;50120;53.250;8.702;2022-09-27T15:05:23;4.82;;;2.72;;
41964;SDS011;50120;53.250;8.702;2022-09-27T15:07:51;5.22;;;2.53;;
41964;SDS011;50120;53.250;8.702;2022-09-27T15:10:20;10.48;;;3.13;;
41964;SDS011;50120;53.250;8.702;2022-09-27T15:12:51;3.80;;;1.90;;
41964;SDS011;50120;53.250;8.702;2022-09-27T15:15:22;3.00;;;1.40;;
41964;SDS011;50120;53.250;8.702;2022-09-27T15:17:50;2.13;;;1.20;;
41964;SDS011;50120;53.250;8.702;2022-09-27T15:20:23;1.27;;;0.98;;
41964;SDS011;50120;53.250;8.702;2022-09-27T15:22:57;3.03;;;1.10;;
41964;SDS011;50120;53.250;8.702;2022-09-27T15:30:40;2.15;;;0.60;;
41964;SDS011;50120;53.250;8.702;2022-09-27T15:33:20;0.60;;;0.50;;
41964;SDS011;50120;53.250;8.702;2022-09-27T15:35:49;1.23;;;0.77;;
41964;SDS011;50120;53.250;8.702;2022-09-27T15:43:39;1.08;;;0.40;;
41964;SDS011;50120;53.250;8.702;2022-09-27T15:49:13;1.88;;;0.60;;
41964;SDS011;50120;53.250;8.702;2022-09-27T15:51:42;0.90;;;0.52;;
41964;SDS011;50120;53.250;8.702;2022-09-27T15:54:08;3.75;;;0.70;;
41964;SDS011;50120;53.250;8.702;2022-09-27T15:56:34;1.65;;;0.52;;
41964;SDS011;50120;53.250;8.702;2022-09-27T15:59:00;1.20;;;1.00;;
41964;SDS011;50120;53.250;8.702;2022-09-27T16:01:26;3.85;;;1.10;;
41964;SDS011;50120;53.250;8.702;2022-09-27T16:03:52;4.90;;;1.05;;
41964;SDS011;50120;53.250;8.702;2022-09-27T16:06:18;2.15;;;1.35;;
41964;SDS011;50120;53.250;8.702;2022-09-27T16:08:46;3.20;;;1.23;;
41964;SDS011;50120;53.250;8.702;2022-09-27T16:11:13;3.70;;;1.40;;
41964;SDS011;50120;53.250;8.702;2022-09-27T16:13:41;2.70;;;1.60;;
41964;SDS011;50120;53.250;8.702;2022-09-27T16:16:17;2.15;;;1.50;;
41964;SDS011;50120;53.250;8.702;2022-09-27T16:18:44;1.55;;;1.35;;
41964;SDS011;50120;53.250;8.702;2022-09-27T16:21:10;3.78;;;1.38;;
41964;SDS011;50120;53.250;8.702;2022-09-27T16:23:36;2.33;;;1.52;;
41964;SDS011;50120;53.250;8.702;2022-09-27T16:26:02;1.65;;;1.45;;
41964;SDS011;50120;53.250;8.702;2022-09-27T16:28:29;2.58;;;1.50;;
41964;SDS011;50120;53.250;8.702;2022-09-27T16:31:02;1.63;;;1.50;;
41964;SDS011;50120;53.250;8.702;2022-09-27T16:33:30;3.03;;;1.40;;
41964;SDS011;50120;53.250;8.702;2022-09-27T16:35:57;4.32;;;1.70;;
41964;SDS011;50120;53.250;8.702;2022-09-27T16:38:29;4.97;;;2.72;;
41964;SDS011;50120;53.250;8.702;2022-09-27T16:40:58;3.60;;;2.20;;
41964;SDS011;50120;53.250;8.702;2022-09-27T16:43:26;5.65;;;2.08;;
41964;SDS011;50120;53.250;8.702;2022-09-27T16:45:52;3.42;;;1.40;;
41964;SDS011;50120;53.250;8.702;2022-09-27T16:48:19;3.75;;;1.00;;
41964;SDS011;50120;53.250;8.702;2022-09-27T16:50:45;1.90;;;1.20;;
41964;SDS011;50120;53.250;8.702;2022-09-27T16:53:46;2.58;;;1.10;;
41964;SDS011;50120;53.250;8.702;2022-09-27T16:56:11;3.65;;;1.17;;
41964;SDS011;50120;53.250;8.702;2022-09-27T16:58:37;2.67;;;0.95;;
41964;SDS011;50120;53.250;8.702;2022-09-27T17:01:03;3.58;;;1.00;;
41964;SDS011;50120;53.250;8.702;2022-09-27T17:03:29;3.78;;;1.40;;
41964;SDS011;50120;53.250;8.702;2022-09-27T17:05:59;1.90;;;1.40;;
41964;SDS011;50120;53.250;8.702;2022-09-27T17:08:26;3.55;;;1.50;;
41964;SDS011;50120;53.250;8.702;2022-09-27T17:10:52;5.55;;;1.50;;
41964;SDS011;50120;53.250;8.702;2022-09-27T17:13:18;4.57;;;1.60;;
41964;SDS011;50120;53.250;8.702;2022-09-27T17:15:45;4.63;;;2.10;;
41964;SDS011;50120;53.250;8.702;2022-09-27T17:18:12;2.92;;;1.77;;
41964;SDS011;50120;53.250;8.702;2022-09-27T17:20:37;9.88;;;2.20;;
41964;SDS011;50120;53.250;8.702;2022-09-27T17:23:03;6.82;;;2.85;;
41964;SDS011;50120;53.250;8.702;2022-09-27T17:25:29;5.55;;;2.60;;
41964;SDS011;50120;53.250;8.702;2022-09-27T17:27:55;4.22;;;2.58;;
41964;SDS011;50120;53.250;8.702;2022-09-27T17:30:21;6.43;;;2.72;;
41964;SDS011;50120;53.250;8.702;2022-09-27T17:32:48;4.45;;;2.60;;
41964;SDS011;50120;53.250;8.702;2022-09-27T17:35:14;5.55;;;3.05;;
41964;SDS011;50120;53.250;8.702;2022-09-27T17:37:40;8.77;;;3.80;;
41964;SDS011;50120;53.250;8.702;2022-09-27T17:40:06;6.60;;;4.05;;
41964;SDS011;50120;53.250;8.702;2022-09-27T17:42:32;8.10;;;3.22;;
41964;SDS011;50120;53.250;8.702;2022-09-27T17:44:58;9.00;;;3.42;;
41964;SDS011;50120;53.250;8.702;2022-09-27T17:47:25;7.20;;;3.10;;
41964;SDS011;50120;53.250;8.702;2022-09-27T17:50:10;7.88;;;3.35;;
41964;SDS011;50120;53.250;8.702;2022-09-27T17:52:52;9.52;;;4.93;;
41964;SDS011;50120;53.250;8.702;2022-09-27T17:55:20;8.65;;;3.97;;
41964;SDS011;50120;53.250;8.702;2022-09-27T17:57:46;8.38;;;3.72;;
41964;SDS011;50120;53.250;8.702;2022-09-27T18:00:12;10.10;;;4.82;;
41964;SDS011;50120;53.250;8.702;2022-09-27T18:02:39;8.77;;;4.15;;
41964;SDS011;50120;53.250;8.702;2022-09-27T18:05:05;10.73;;;4.47;;
41964;SDS011;50120;53.250;8.702;2022-09-27T18:07:31;7.10;;;4.30;;
41964;SDS011;50120;53.250;8.702;2022-09-27T18:09:57;8.18;;;4.53;;
41964;SDS011;50120;53.250;8.702;2022-09-27T18:12:24;8.65;;;4.43;;
41964;SDS011;50120;53.250;8.702;2022-09-27T18:14:58;7.60;;;4.13;;
41964;SDS011;50120;53.250;8.702;2022-09-27T18:17:25;9.75;;;4.07;;